Terminal Aerodrome Forecast
Issued by NWS

Home | Current Version | Previous Version | Graphics & Text | Print | Product List | Glossary On
Versions: 1 2 3 4 5 6 7 8 9 10 11 12 13 14 15 16 17 18 19 20 21 22 23 24
000
FTUS43 KGLD 301723
TAFMCK
TAF
KMCK 301723Z 3018/0118 17010KT P6SM SKC
      TEMPO 3019/3022 22010G20KT
     FM302200 VRB05KT P6SM SKC
     FM010600 VRB04KT P6SM SCT030 BKN100
     FM011500 30010KT P6SM BKN150=

USA.gov is the U.S. government's official web portal to all federal, state and local government web resources and services.